Advance, Missouri
Current Conditions -  °F | °C
As of 11:53 AM on Saturday 25 Oct 2014 (Local Time) from KCGI Reporting Station
Clear Clear  
Wind Chill: 74°   Ceiling: Unl
Heat Index: 74°   Visibility: 9mi
Dew Point: 62°   Wind: 5mph
Humidity: 66%   Direction: 310°NW
Pressure: 30.04"   Gusts: NA
Location:  37.1°N, 89.91°W
Report Text: KCGI 251653Z 31004KT 9SM CLR 23/17 A3004 RMK AO2 SLP171 T02330167
Loading
Personal Weather Stations






























Interactive Weather Map
Tropical Storm Tracking
New forecast layout! Learn more

10-Day Weather Forecast

Advertisements
Track Severe Weather on mobile